sensor_id;sensor_type;location;lat;lon;timestamp;temperature;humidity
5358;DHT22;2702;51.014;7.170;2023-02-03T00:01:54;7.50;99.90
5358;DHT22;2702;51.014;7.170;2023-02-03T00:04:20;7.60;99.90
5358;DHT22;2702;51.014;7.170;2023-02-03T00:06:46;7.60;99.90
5358;DHT22;2702;51.014;7.170;2023-02-03T00:09:12;7.60;99.90
5358;DHT22;2702;51.014;7.170;2023-02-03T00:11:39;7.50;99.90
5358;DHT22;2702;51.014;7.170;2023-02-03T00:14:05;7.60;99.90
5358;DHT22;2702;51.014;7.170;2023-02-03T00:16:33;7.60;99.90
5358;DHT22;2702;51.014;7.170;2023-02-03T00:18:59;7.60;99.90
5358;DHT22;2702;51.014;7.170;2023-02-03T00:21:25;7.60;99.90
5358;DHT22;2702;51.014;7.170;2023-02-03T00:23:51;7.60;99.90
5358;DHT22;2702;51.014;7.170;2023-02-03T00:26:19;7.60;99.90
5358;DHT22;2702;51.014;7.170;2023-02-03T00:28:45;7.60;99.90
5358;DHT22;2702;51.014;7.170;2023-02-03T00:31:19;7.60;99.90
5358;DHT22;2702;51.014;7.170;2023-02-03T00:33:45;7.70;99.90
5358;DHT22;2702;51.014;7.170;2023-02-03T00:36:12;7.70;99.90
5358;DHT22;2702;51.014;7.170;2023-02-03T00:38:38;7.60;99.90
5358;DHT22;2702;51.014;7.170;2023-02-03T00:41:05;7.70;99.90
5358;DHT22;2702;51.014;7.170;2023-02-03T00:43:31;7.60;99.90
5358;DHT22;2702;51.014;7.170;2023-02-03T00:45:56;7.70;99.90
5358;DHT22;2702;51.014;7.170;2023-02-03T00:48:22;7.70;99.90
5358;DHT22;2702;51.014;7.170;2023-02-03T00:50:48;7.70;99.90
5358;DHT22;2702;51.014;7.170;2023-02-03T00:53:14;7.70;99.90
5358;DHT22;2702;51.014;7.170;2023-02-03T00:55:42;7.70;99.90
5358;DHT22;2702;51.014;7.170;2023-02-03T00:58:08;7.70;99.90
5358;DHT22;2702;51.014;7.170;2023-02-03T01:00:34;7.70;99.90
5358;DHT22;2702;51.014;7.170;2023-02-03T01:03:00;7.70;99.90
5358;DHT22;2702;51.014;7.170;2023-02-03T01:05:26;7.70;99.90
5358;DHT22;2702;51.014;7.170;2023-02-03T01:07:51;7.70;99.90
5358;DHT22;2702;51.014;7.170;2023-02-03T01:10:17;7.70;99.90
5358;DHT22;2702;51.014;7.170;2023-02-03T01:12:43;7.70;99.90
5358;DHT22;2702;51.014;7.170;2023-02-03T01:15:09;7.60;99.90
5358;DHT22;2702;51.014;7.170;2023-02-03T01:17:35;7.70;99.90
5358;DHT22;2702;51.014;7.170;2023-02-03T01:20:01;7.70;99.90
5358;DHT22;2702;51.014;7.170;2023-02-03T01:22:30;7.70;99.90
5358;DHT22;2702;51.014;7.170;2023-02-03T01:24:56;7.60;99.90
5358;DHT22;2702;51.014;7.170;2023-02-03T01:27:22;7.70;99.90
5358;DHT22;2702;51.014;7.170;2023-02-03T01:29:48;7.60;99.90
5358;DHT22;2702;51.014;7.170;2023-02-03T01:32:14;7.60;99.90
5358;DHT22;2702;51.014;7.170;2023-02-03T01:34:39;7.60;99.90
5358;DHT22;2702;51.014;7.170;2023-02-03T01:37:05;7.60;99.90
5358;DHT22;2702;51.014;7.170;2023-02-03T01:39:31;7.60;99.90
5358;DHT22;2702;51.014;7.170;2023-02-03T01:41:57;7.60;99.90
5358;DHT22;2702;51.014;7.170;2023-02-03T01:44:47;7.60;99.90
5358;DHT22;2702;51.014;7.170;2023-02-03T01:47:51;7.60;99.90
5358;DHT22;2702;51.014;7.170;2023-02-03T01:50:24;7.60;99.90
5358;DHT22;2702;51.014;7.170;2023-02-03T01:53:12;7.70;99.90
5358;DHT22;2702;51.014;7.170;2023-02-03T01:55:42;7.60;99.90
5358;DHT22;2702;51.014;7.170;2023-02-03T01:58:26;7.60;99.90
5358;DHT22;2702;51.014;7.170;2023-02-03T02:00:54;7.70;99.90
5358;DHT22;2702;51.014;7.170;2023-02-03T02:03:35;7.70;99.90
5358;DHT22;2702;51.014;7.170;2023-02-03T02:06:10;7.60;99.90
5358;DHT22;2702;51.014;7.170;2023-02-03T02:08:37;7.70;99.90
5358;DHT22;2702;51.014;7.170;2023-02-03T02:11:05;7.60;99.90
5358;DHT22;2702;51.014;7.170;2023-02-03T02:13:33;7.70;99.90
5358;DHT22;2702;51.014;7.170;2023-02-03T02:21:54;7.80;99.90
5358;DHT22;2702;51.014;7.170;2023-02-03T02:43:42;7.70;99.90
5358;DHT22;2702;51.014;7.170;2023-02-03T02:46:20;7.70;99.90
5358;DHT22;2702;51.014;7.170;2023-02-03T02:49:00;7.70;99.90
5358;DHT22;2702;51.014;7.170;2023-02-03T02:51:28;7.70;99.90
5358;DHT22;2702;51.014;7.170;2023-02-03T02:54:00;7.70;99.90
5358;DHT22;2702;51.014;7.170;2023-02-03T02:56:29;7.70;99.90
5358;DHT22;2702;51.014;7.170;2023-02-03T02:58:59;7.70;99.90
5358;DHT22;2702;51.014;7.170;2023-02-03T03:01:25;7.60;99.90
5358;DHT22;2702;51.014;7.170;2023-02-03T03:03:52;7.70;99.90
5358;DHT22;2702;51.014;7.170;2023-02-03T03:06:29;7.70;99.90
5358;DHT22;2702;51.014;7.170;2023-02-03T03:09:27;7.60;99.90
5358;DHT22;2702;51.014;7.170;2023-02-03T03:12:07;7.70;99.90
5358;DHT22;2702;51.014;7.170;2023-02-03T03:14:36;7.60;99.90
5358;DHT22;2702;51.014;7.170;2023-02-03T03:17:06;7.50;99.90
5358;DHT22;2702;51.014;7.170;2023-02-03T03:19:48;7.50;99.90
5358;DHT22;2702;51.014;7.170;2023-02-03T03:22:16;7.50;99.90
5358;DHT22;2702;51.014;7.170;2023-02-03T03:24:47;7.50;99.90
5358;DHT22;2702;51.014;7.170;2023-02-03T03:27:24;7.40;99.90
5358;DHT22;2702;51.014;7.170;2023-02-03T03:29:57;7.50;99.90
5358;DHT22;2702;51.014;7.170;2023-02-03T03:32:24;7.50;99.90
5358;DHT22;2702;51.014;7.170;2023-02-03T03:34:53;7.50;99.90
5358;DHT22;2702;51.014;7.170;2023-02-03T03:48:05;7.50;99.90
5358;DHT22;2702;51.014;7.170;2023-02-03T03:50:40;7.50;99.90
5358;DHT22;2702;51.014;7.170;2023-02-03T03:53:08;7.50;99.90
5358;DHT22;2702;51.014;7.170;2023-02-03T03:55:35;7.50;99.90
5358;DHT22;2702;51.014;7.170;2023-02-03T03:58:08;7.50;99.90
5358;DHT22;2702;51.014;7.170;2023-02-03T04:00:38;7.50;99.90
5358;DHT22;2702;51.014;7.170;2023-02-03T04:03:12;7.60;99.90
5358;DHT22;2702;51.014;7.170;2023-02-03T04:05:39;7.60;99.90
5358;DHT22;2702;51.014;7.170;2023-02-03T04:08:06;7.60;99.90
5358;DHT22;2702;51.014;7.170;2023-02-03T04:10:40;7.60;99.90
5358;DHT22;2702;51.014;7.170;2023-02-03T04:13:08;7.60;99.90
5358;DHT22;2702;51.014;7.170;2023-02-03T04:15:34;7.70;99.90
5358;DHT22;2702;51.014;7.170;2023-02-03T04:18:01;7.70;99.90
5358;DHT22;2702;51.014;7.170;2023-02-03T04:20:28;7.70;99.90
5358;DHT22;2702;51.014;7.170;2023-02-03T04:22:54;7.70;99.90
5358;DHT22;2702;51.014;7.170;2023-02-03T04:25:20;7.70;99.90
5358;DHT22;2702;51.014;7.170;2023-02-03T04:27:46;7.60;99.90
5358;DHT22;2702;51.014;7.170;2023-02-03T04:30:12;7.60;99.90
5358;DHT22;2702;51.014;7.170;2023-02-03T04:32:39;7.70;99.90
5358;DHT22;2702;51.014;7.170;2023-02-03T04:35:06;7.70;99.90
5358;DHT22;2702;51.014;7.170;2023-02-03T04:37:33;7.70;99.90
5358;DHT22;2702;51.014;7.170;2023-02-03T04:39:59;7.70;99.90
5358;DHT22;2702;51.014;7.170;2023-02-03T04:42:25;7.70;99.90
5358;DHT22;2702;51.014;7.170;2023-02-03T04:44:51;7.70;99.90
5358;DHT22;2702;51.014;7.170;2023-02-03T04:47:17;7.70;99.90
5358;DHT22;2702;51.014;7.170;2023-02-03T04:49:44;7.70;99.90
5358;DHT22;2702;51.014;7.170;2023-02-03T04:52:11;7.70;99.90
5358;DHT22;2702;51.014;7.170;2023-02-03T04:54:37;7.70;99.90
5358;DHT22;2702;51.014;7.170;2023-02-03T04:57:06;7.70;99.90
5358;DHT22;2702;51.014;7.170;2023-02-03T04:59:32;7.70;99.90
5358;DHT22;2702;51.014;7.170;2023-02-03T05:02:01;7.70;99.90
5358;DHT22;2702;51.014;7.170;2023-02-03T05:04:27;7.70;99.90
5358;DHT22;2702;51.014;7.170;2023-02-03T05:06:53;7.70;99.90
5358;DHT22;2702;51.014;7.170;2023-02-03T05:09:20;7.70;99.90
5358;DHT22;2702;51.014;7.170;2023-02-03T05:11:46;7.70;99.90
5358;DHT22;2702;51.014;7.170;2023-02-03T05:14:12;7.70;99.90
5358;DHT22;2702;51.014;7.170;2023-02-03T05:16:38;7.70;99.90
5358;DHT22;2702;51.014;7.170;2023-02-03T05:19:04;7.70;99.90
5358;DHT22;2702;51.014;7.170;2023-02-03T05:21:29;7.70;99.90
5358;DHT22;2702;51.014;7.170;2023-02-03T05:23:55;7.70;99.90
5358;DHT22;2702;51.014;7.170;2023-02-03T05:26:22;7.70;99.90
5358;DHT22;2702;51.014;7.170;2023-02-03T05:28:48;7.70;99.90
5358;DHT22;2702;51.014;7.170;2023-02-03T05:31:14;7.70;99.90
5358;DHT22;2702;51.014;7.170;2023-02-03T05:33:40;7.70;99.90
5358;DHT22;2702;51.014;7.170;2023-02-03T05:36:06;7.80;99.90
5358;DHT22;2702;51.014;7.170;2023-02-03T05:38:32;7.70;99.90
5358;DHT22;2702;51.014;7.170;2023-02-03T05:40:57;7.70;99.90
5358;DHT22;2702;51.014;7.170;2023-02-03T05:43:42;7.70;99.90
5358;DHT22;2702;51.014;7.170;2023-02-03T05:46:08;7.70;99.90
5358;DHT22;2702;51.014;7.170;2023-02-03T05:48:34;7.70;99.90
5358;DHT22;2702;51.014;7.170;2023-02-03T05:51:00;7.70;99.90
5358;DHT22;2702;51.014;7.170;2023-02-03T05:53:26;7.70;99.90
5358;DHT22;2702;51.014;7.170;2023-02-03T05:55:52;7.70;99.90
5358;DHT22;2702;51.014;7.170;2023-02-03T05:58:18;7.70;99.90
5358;DHT22;2702;51.014;7.170;2023-02-03T06:00:44;7.70;99.90
5358;DHT22;2702;51.014;7.170;2023-02-03T06:03:10;7.70;99.90
5358;DHT22;2702;51.014;7.170;2023-02-03T06:05:36;7.70;99.90
5358;DHT22;2702;51.014;7.170;2023-02-03T06:08:06;7.60;99.90
5358;DHT22;2702;51.014;7.170;2023-02-03T06:10:32;7.70;99.90
5358;DHT22;2702;51.014;7.170;2023-02-03T06:12:59;7.60;99.90
5358;DHT22;2702;51.014;7.170;2023-02-03T06:15:25;7.60;99.90
5358;DHT22;2702;51.014;7.170;2023-02-03T06:17:51;7.60;99.90
5358;DHT22;2702;51.014;7.170;2023-02-03T06:20:18;7.60;99.90
5358;DHT22;2702;51.014;7.170;2023-02-03T06:22:44;7.70;99.90
5358;DHT22;2702;51.014;7.170;2023-02-03T06:25:10;7.70;99.90
5358;DHT22;2702;51.014;7.170;2023-02-03T06:27:36;7.70;99.90
5358;DHT22;2702;51.014;7.170;2023-02-03T06:30:03;7.70;99.90
5358;DHT22;2702;51.014;7.170;2023-02-03T06:32:29;7.70;99.90
5358;DHT22;2702;51.014;7.170;2023-02-03T06:34:54;7.70;99.90
5358;DHT22;2702;51.014;7.170;2023-02-03T06:37:20;7.70;99.90
5358;DHT22;2702;51.014;7.170;2023-02-03T06:39:46;7.70;99.90
5358;DHT22;2702;51.014;7.170;2023-02-03T06:42:12;7.70;99.90
5358;DHT22;2702;51.014;7.170;2023-02-03T06:44:37;7.70;99.90
5358;DHT22;2702;51.014;7.170;2023-02-03T06:47:03;7.80;99.90
5358;DHT22;2702;51.014;7.170;2023-02-03T06:49:29;7.80;99.90
5358;DHT22;2702;51.014;7.170;2023-02-03T06:51:55;7.80;99.90
5358;DHT22;2702;51.014;7.170;2023-02-03T06:54:21;7.80;99.90
5358;DHT22;2702;51.014;7.170;2023-02-03T06:56:47;7.80;99.90
5358;DHT22;2702;51.014;7.170;2023-02-03T06:59:13;7.80;99.90
5358;DHT22;2702;51.014;7.170;2023-02-03T07:01:39;7.80;99.90
5358;DHT22;2702;51.014;7.170;2023-02-03T07:04:05;7.80;99.90
5358;DHT22;2702;51.014;7.170;2023-02-03T07:06:31;7.80;99.90
5358;DHT22;2702;51.014;7.170;2023-02-03T07:09:02;7.80;99.90
5358;DHT22;2702;51.014;7.170;2023-02-03T07:11:29;7.90;99.90
5358;DHT22;2702;51.014;7.170;2023-02-03T07:13:56;7.90;99.90
5358;DHT22;2702;51.014;7.170;2023-02-03T07:16:22;7.90;99.90
5358;DHT22;2702;51.014;7.170;2023-02-03T07:18:47;7.90;99.90
5358;DHT22;2702;51.014;7.170;2023-02-03T07:21:14;7.80;99.90
5358;DHT22;2702;51.014;7.170;2023-02-03T07:23:41;7.90;99.90
5358;DHT22;2702;51.014;7.170;2023-02-03T07:26:08;7.90;99.90
5358;DHT22;2702;51.014;7.170;2023-02-03T07:28:34;7.90;99.90
5358;DHT22;2702;51.014;7.170;2023-02-03T07:31:02;7.80;99.90
5358;DHT22;2702;51.014;7.170;2023-02-03T07:33:29;7.80;99.90
5358;DHT22;2702;51.014;7.170;2023-02-03T07:35:57;7.80;99.90
5358;DHT22;2702;51.014;7.170;2023-02-03T07:38:25;7.80;99.90
5358;DHT22;2702;51.014;7.170;2023-02-03T07:40:52;7.90;99.90
5358;DHT22;2702;51.014;7.170;2023-02-03T07:43:18;7.80;99.90
5358;DHT22;2702;51.014;7.170;2023-02-03T07:45:44;7.90;99.90
5358;DHT22;2702;51.014;7.170;2023-02-03T07:48:11;7.90;99.90
5358;DHT22;2702;51.014;7.170;2023-02-03T07:50:37;7.80;99.90
5358;DHT22;2702;51.014;7.170;2023-02-03T07:53:03;7.80;99.90
5358;DHT22;2702;51.014;7.170;2023-02-03T07:55:29;7.80;99.90
5358;DHT22;2702;51.014;7.170;2023-02-03T07:57:56;7.80;99.90
5358;DHT22;2702;51.014;7.170;2023-02-03T08:00:22;7.80;99.90
5358;DHT22;2702;51.014;7.170;2023-02-03T08:02:48;7.80;99.90
5358;DHT22;2702;51.014;7.170;2023-02-03T08:05:15;7.80;99.90
5358;DHT22;2702;51.014;7.170;2023-02-03T08:07:42;7.80;99.90
5358;DHT22;2702;51.014;7.170;2023-02-03T08:10:08;7.70;99.90
5358;DHT22;2702;51.014;7.170;2023-02-03T08:12:35;7.80;99.90
5358;DHT22;2702;51.014;7.170;2023-02-03T08:15:01;7.80;99.90
5358;DHT22;2702;51.014;7.170;2023-02-03T08:17:26;7.70;99.90
5358;DHT22;2702;51.014;7.170;2023-02-03T08:19:52;7.80;99.90
5358;DHT22;2702;51.014;7.170;2023-02-03T08:22:18;7.80;99.90
5358;DHT22;2702;51.014;7.170;2023-02-03T08:24:45;7.70;99.90
5358;DHT22;2702;51.014;7.170;2023-02-03T08:27:13;7.80;99.90
5358;DHT22;2702;51.014;7.170;2023-02-03T08:29:39;7.70;99.90
5358;DHT22;2702;51.014;7.170;2023-02-03T08:32:09;7.80;99.90
5358;DHT22;2702;51.014;7.170;2023-02-03T08:34:35;7.70;99.90
5358;DHT22;2702;51.014;7.170;2023-02-03T08:37:01;7.70;99.90
5358;DHT22;2702;51.014;7.170;2023-02-03T08:39:26;7.70;99.90
5358;DHT22;2702;51.014;7.170;2023-02-03T08:41:53;7.70;99.90
5358;DHT22;2702;51.014;7.170;2023-02-03T08:44:19;7.70;99.90
5358;DHT22;2702;51.014;7.170;2023-02-03T08:46:52;7.80;99.90
5358;DHT22;2702;51.014;7.170;2023-02-03T08:49:19;7.70;99.90
5358;DHT22;2702;51.014;7.170;2023-02-03T08:51:48;7.70;99.90
5358;DHT22;2702;51.014;7.170;2023-02-03T08:54:14;7.70;99.90
5358;DHT22;2702;51.014;7.170;2023-02-03T08:56:40;7.70;99.90
5358;DHT22;2702;51.014;7.170;2023-02-03T08:59:06;7.80;99.90
5358;DHT22;2702;51.014;7.170;2023-02-03T09:01:32;7.80;99.90
5358;DHT22;2702;51.014;7.170;2023-02-03T09:03:58;7.70;99.90
5358;DHT22;2702;51.014;7.170;2023-02-03T09:06:26;7.70;99.90
5358;DHT22;2702;51.014;7.170;2023-02-03T09:08:54;7.60;99.90
5358;DHT22;2702;51.014;7.170;2023-02-03T09:11:20;7.60;99.90
5358;DHT22;2702;51.014;7.170;2023-02-03T09:13:46;7.60;99.90
5358;DHT22;2702;51.014;7.170;2023-02-03T09:16:15;7.50;99.90
5358;DHT22;2702;51.014;7.170;2023-02-03T09:18:47;7.50;99.90
5358;DHT22;2702;51.014;7.170;2023-02-03T09:21:14;7.50;99.90
5358;DHT22;2702;51.014;7.170;2023-02-03T09:23:44;7.50;99.90
5358;DHT22;2702;51.014;7.170;2023-02-03T09:26:13;7.50;99.90
5358;DHT22;2702;51.014;7.170;2023-02-03T09:28:40;7.50;99.90
5358;DHT22;2702;51.014;7.170;2023-02-03T09:31:08;7.50;99.90
5358;DHT22;2702;51.014;7.170;2023-02-03T09:33:35;7.50;99.90
5358;DHT22;2702;51.014;7.170;2023-02-03T09:36:01;7.50;99.90
5358;DHT22;2702;51.014;7.170;2023-02-03T09:38:27;7.40;99.90
5358;DHT22;2702;51.014;7.170;2023-02-03T09:41:00;7.40;99.90
5358;DHT22;2702;51.014;7.170;2023-02-03T09:46:18;7.50;99.90
5358;DHT22;2702;51.014;7.170;2023-02-03T09:48:51;7.50;99.90
5358;DHT22;2702;51.014;7.170;2023-02-03T09:51:25;7.50;99.90
5358;DHT22;2702;51.014;7.170;2023-02-03T09:54:19;7.40;99.90
5358;DHT22;2702;51.014;7.170;2023-02-03T09:56:48;7.40;99.90
5358;DHT22;2702;51.014;7.170;2023-02-03T09:59:18;7.40;99.90
5358;DHT22;2702;51.014;7.170;2023-02-03T10:01:49;7.40;99.90
5358;DHT22;2702;51.014;7.170;2023-02-03T10:04:23;7.40;99.90
5358;DHT22;2702;51.014;7.170;2023-02-03T10:07:35;7.40;99.90
5358;DHT22;2702;51.014;7.170;2023-02-03T10:18:16;7.30;99.90
5358;DHT22;2702;51.014;7.170;2023-02-03T10:20:52;7.30;99.90
5358;DHT22;2702;51.014;7.170;2023-02-03T10:23:28;7.30;99.90
5358;DHT22;2702;51.014;7.170;2023-02-03T10:25:56;7.30;99.90
5358;DHT22;2702;51.014;7.170;2023-02-03T10:28:27;7.40;99.90
5358;DHT22;2702;51.014;7.170;2023-02-03T10:30:58;7.40;99.90
5358;DHT22;2702;51.014;7.170;2023-02-03T10:33:29;7.30;99.90
5358;DHT22;2702;51.014;7.170;2023-02-03T10:39:03;7.30;99.90
5358;DHT22;2702;51.014;7.170;2023-02-03T10:41:32;7.30;99.90
5358;DHT22;2702;51.014;7.170;2023-02-03T10:44:01;7.30;99.90
5358;DHT22;2702;51.014;7.170;2023-02-03T10:46:34;7.30;99.90
5358;DHT22;2702;51.014;7.170;2023-02-03T10:49:01;7.30;99.90
5358;DHT22;2702;51.014;7.170;2023-02-03T10:51:29;7.30;99.90
5358;DHT22;2702;51.014;7.170;2023-02-03T10:53:59;7.30;99.90
5358;DHT22;2702;51.014;7.170;2023-02-03T10:56:36;7.20;99.90
5358;DHT22;2702;51.014;7.170;2023-02-03T10:59:03;7.30;99.90
5358;DHT22;2702;51.014;7.170;2023-02-03T11:01:44;7.30;99.90
5358;DHT22;2702;51.014;7.170;2023-02-03T11:04:24;7.30;99.90
5358;DHT22;2702;51.014;7.170;2023-02-03T11:07:04;7.30;99.90
5358;DHT22;2702;51.014;7.170;2023-02-03T11:09:38;7.30;99.90
5358;DHT22;2702;51.014;7.170;2023-02-03T11:12:16;7.30;99.90
5358;DHT22;2702;51.014;7.170;2023-02-03T11:14:53;7.30;99.90
5358;DHT22;2702;51.014;7.170;2023-02-03T11:17:21;7.30;99.90
5358;DHT22;2702;51.014;7.170;2023-02-03T11:20:12;7.40;99.90
5358;DHT22;2702;51.014;7.170;2023-02-03T11:22:40;7.40;99.90
5358;DHT22;2702;51.014;7.170;2023-02-03T11:25:34;7.40;99.90
5358;DHT22;2702;51.014;7.170;2023-02-03T11:28:04;7.40;99.90
5358;DHT22;2702;51.014;7.170;2023-02-03T11:30:32;7.40;99.90
5358;DHT22;2702;51.014;7.170;2023-02-03T11:33:01;7.50;99.90
5358;DHT22;2702;51.014;7.170;2023-02-03T11:35:28;7.50;99.90
5358;DHT22;2702;51.014;7.170;2023-02-03T11:38:00;7.50;99.90
5358;DHT22;2702;51.014;7.170;2023-02-03T11:40:32;7.50;99.90
5358;DHT22;2702;51.014;7.170;2023-02-03T11:43:08;7.50;99.90
5358;DHT22;2702;51.014;7.170;2023-02-03T11:45:41;7.50;99.90
5358;DHT22;2702;51.014;7.170;2023-02-03T11:51:35;7.50;99.90
5358;DHT22;2702;51.014;7.170;2023-02-03T11:57:23;7.60;99.90
5358;DHT22;2702;51.014;7.170;2023-02-03T12:24:28;7.80;99.90
5358;DHT22;2702;51.014;7.170;2023-02-03T12:30:42;7.80;99.90
5358;DHT22;2702;51.014;7.170;2023-02-03T12:33:19;7.80;99.90
5358;DHT22;2702;51.014;7.170;2023-02-03T12:36:24;7.80;99.90
5358;DHT22;2702;51.014;7.170;2023-02-03T12:38:56;7.80;99.90
5358;DHT22;2702;51.014;7.170;2023-02-03T12:41:48;7.90;99.90
5358;DHT22;2702;51.014;7.170;2023-02-03T12:44:32;7.90;99.90
5358;DHT22;2702;51.014;7.170;2023-02-03T12:47:30;7.90;99.90
5358;DHT22;2702;51.014;7.170;2023-02-03T12:50:22;7.90;99.90
5358;DHT22;2702;51.014;7.170;2023-02-03T12:52:55;7.90;99.90
5358;DHT22;2702;51.014;7.170;2023-02-03T12:56:12;7.90;99.90
5358;DHT22;2702;51.014;7.170;2023-02-03T13:01:25;8.00;99.90
5358;DHT22;2702;51.014;7.170;2023-02-03T13:07:13;7.90;99.90
5358;DHT22;2702;51.014;7.170;2023-02-03T13:10:03;7.90;99.90
5358;DHT22;2702;51.014;7.170;2023-02-03T13:12:38;7.90;99.90
5358;DHT22;2702;51.014;7.170;2023-02-03T13:17:56;7.90;99.90
5358;DHT22;2702;51.014;7.170;2023-02-03T13:20:26;7.90;99.90
5358;DHT22;2702;51.014;7.170;2023-02-03T13:22:56;7.90;99.90
5358;DHT22;2702;51.014;7.170;2023-02-03T13:31:55;7.90;99.90
5358;DHT22;2702;51.014;7.170;2023-02-03T13:43:47;7.90;99.90
5358;DHT22;2702;51.014;7.170;2023-02-03T13:46:31;7.90;99.90
5358;DHT22;2702;51.014;7.170;2023-02-03T13:49:00;8.00;99.90
5358;DHT22;2702;51.014;7.170;2023-02-03T13:51:33;8.00;99.90
5358;DHT22;2702;51.014;7.170;2023-02-03T13:54:06;8.00;99.90
5358;DHT22;2702;51.014;7.170;2023-02-03T13:56:33;8.10;99.90
5358;DHT22;2702;51.014;7.170;2023-02-03T13:59:04;8.10;99.90
5358;DHT22;2702;51.014;7.170;2023-02-03T14:01:31;8.10;99.90
5358;DHT22;2702;51.014;7.170;2023-02-03T14:04:01;8.10;99.90
5358;DHT22;2702;51.014;7.170;2023-02-03T14:14:57;8.30;99.90
5358;DHT22;2702;51.014;7.170;2023-02-03T14:22:53;8.30;99.90
5358;DHT22;2702;51.014;7.170;2023-02-03T14:25:21;8.40;99.90
5358;DHT22;2702;51.014;7.170;2023-02-03T14:28:01;8.40;99.90
5358;DHT22;2702;51.014;7.170;2023-02-03T14:30:28;8.30;99.90
5358;DHT22;2702;51.014;7.170;2023-02-03T14:32:59;8.30;99.90
5358;DHT22;2702;51.014;7.170;2023-02-03T14:35:32;8.30;99.90
5358;DHT22;2702;51.014;7.170;2023-02-03T14:38:06;8.30;99.90
5358;DHT22;2702;51.014;7.170;2023-02-03T14:41:01;8.30;99.90
5358;DHT22;2702;51.014;7.170;2023-02-03T14:43:42;8.30;99.90
5358;DHT22;2702;51.014;7.170;2023-02-03T14:49:18;8.30;99.90
5358;DHT22;2702;51.014;7.170;2023-02-03T14:52:06;8.40;99.90
5358;DHT22;2702;51.014;7.170;2023-02-03T14:57:42;8.40;99.90
5358;DHT22;2702;51.014;7.170;2023-02-03T15:05:43;8.40;99.90
5358;DHT22;2702;51.014;7.170;2023-02-03T15:08:46;8.50;99.90
5358;DHT22;2702;51.014;7.170;2023-02-03T15:11:20;8.50;99.90
5358;DHT22;2702;51.014;7.170;2023-02-03T15:13:47;8.50;99.90
5358;DHT22;2702;51.014;7.170;2023-02-03T15:16:17;8.50;99.90
5358;DHT22;2702;51.014;7.170;2023-02-03T15:18:43;8.40;99.90
5358;DHT22;2702;51.014;7.170;2023-02-03T15:21:19;8.50;99.90
5358;DHT22;2702;51.014;7.170;2023-02-03T15:23:47;8.40;99.90
5358;DHT22;2702;51.014;7.170;2023-02-03T15:26:14;8.40;99.90
5358;DHT22;2702;51.014;7.170;2023-02-03T15:28:41;8.40;99.90
5358;DHT22;2702;51.014;7.170;2023-02-03T15:34:01;8.30;99.90
5358;DHT22;2702;51.014;7.170;2023-02-03T15:36:43;8.20;99.90
5358;DHT22;2702;51.014;7.170;2023-02-03T15:41:53;8.20;99.90
5358;DHT22;2702;51.014;7.170;2023-02-03T15:44:34;8.20;99.90
5358;DHT22;2702;51.014;7.170;2023-02-03T15:47:04;8.20;99.90
5358;DHT22;2702;51.014;7.170;2023-02-03T15:49:41;8.10;99.90
5358;DHT22;2702;51.014;7.170;2023-02-03T15:52:19;7.80;99.90
5358;DHT22;2702;51.014;7.170;2023-02-03T15:54:50;7.70;99.90
5358;DHT22;2702;51.014;7.170;2023-02-03T15:57:26;7.60;99.90
5358;DHT22;2702;51.014;7.170;2023-02-03T15:59:59;7.50;99.90
5358;DHT22;2702;51.014;7.170;2023-02-03T16:02:32;7.40;99.90
5358;DHT22;2702;51.014;7.170;2023-02-03T16:07:47;7.30;99.90
5358;DHT22;2702;51.014;7.170;2023-02-03T16:10:42;7.20;99.90
5358;DHT22;2702;51.014;7.170;2023-02-03T16:13:24;7.30;99.90
5358;DHT22;2702;51.014;7.170;2023-02-03T16:16:27;7.20;99.90
5358;DHT22;2702;51.014;7.170;2023-02-03T16:19:01;7.30;99.90
5358;DHT22;2702;51.014;7.170;2023-02-03T16:29:52;7.20;99.90
5358;DHT22;2702;51.014;7.170;2023-02-03T16:32:37;7.20;99.90
5358;DHT22;2702;51.014;7.170;2023-02-03T16:35:22;7.20;99.90
5358;DHT22;2702;51.014;7.170;2023-02-03T16:38:10;7.20;99.90
5358;DHT22;2702;51.014;7.170;2023-02-03T16:40:56;7.20;99.90
5358;DHT22;2702;51.014;7.170;2023-02-03T16:43:41;7.20;99.90
5358;DHT22;2702;51.014;7.170;2023-02-03T16:46:25;7.20;99.90
5358;DHT22;2702;51.014;7.170;2023-02-03T16:49:09;7.20;99.90
5358;DHT22;2702;51.014;7.170;2023-02-03T16:51:53;7.20;99.90
5358;DHT22;2702;51.014;7.170;2023-02-03T16:54:19;7.20;99.90
5358;DHT22;2702;51.014;7.170;2023-02-03T16:56:45;7.30;99.90
5358;DHT22;2702;51.014;7.170;2023-02-03T16:59:12;7.30;99.90
5358;DHT22;2702;51.014;7.170;2023-02-03T17:01:38;7.20;99.90
5358;DHT22;2702;51.014;7.170;2023-02-03T17:04:04;7.20;99.90
5358;DHT22;2702;51.014;7.170;2023-02-03T17:06:30;7.20;99.90
5358;DHT22;2702;51.014;7.170;2023-02-03T17:08:58;7.30;99.90
5358;DHT22;2702;51.014;7.170;2023-02-03T17:11:23;7.30;99.90
5358;DHT22;2702;51.014;7.170;2023-02-03T17:13:49;7.30;99.90
5358;DHT22;2702;51.014;7.170;2023-02-03T17:16:22;7.30;99.90
5358;DHT22;2702;51.014;7.170;2023-02-03T17:18:48;7.20;99.90
5358;DHT22;2702;51.014;7.170;2023-02-03T17:21:20;7.20;99.90
5358;DHT22;2702;51.014;7.170;2023-02-03T17:23:46;7.30;99.90
5358;DHT22;2702;51.014;7.170;2023-02-03T17:26:12;7.20;99.90
5358;DHT22;2702;51.014;7.170;2023-02-03T17:28:40;7.20;99.90
5358;DHT22;2702;51.014;7.170;2023-02-03T17:31:11;7.20;99.90
5358;DHT22;2702;51.014;7.170;2023-02-03T17:33:39;7.20;99.90
5358;DHT22;2702;51.014;7.170;2023-02-03T17:36:12;7.30;99.90
5358;DHT22;2702;51.014;7.170;2023-02-03T17:38:44;7.30;99.90
5358;DHT22;2702;51.014;7.170;2023-02-03T17:41:12;7.30;99.90
5358;DHT22;2702;51.014;7.170;2023-02-03T17:43:39;7.20;99.90
5358;DHT22;2702;51.014;7.170;2023-02-03T17:46:06;7.20;99.90
5358;DHT22;2702;51.014;7.170;2023-02-03T17:48:32;7.20;99.90
5358;DHT22;2702;51.014;7.170;2023-02-03T17:51:28;7.20;99.90
5358;DHT22;2702;51.014;7.170;2023-02-03T17:53:57;7.20;99.90
5358;DHT22;2702;51.014;7.170;2023-02-03T17:56:29;7.20;99.90
5358;DHT22;2702;51.014;7.170;2023-02-03T17:58:56;7.20;99.90
5358;DHT22;2702;51.014;7.170;2023-02-03T18:01:23;7.20;99.90
5358;DHT22;2702;51.014;7.170;2023-02-03T18:04:00;7.10;99.90
5358;DHT22;2702;51.014;7.170;2023-02-03T18:06:28;7.20;99.90
5358;DHT22;2702;51.014;7.170;2023-02-03T18:08:55;7.10;99.90
5358;DHT22;2702;51.014;7.170;2023-02-03T18:11:28;7.10;99.90
5358;DHT22;2702;51.014;7.170;2023-02-03T18:13:54;7.20;99.90
5358;DHT22;2702;51.014;7.170;2023-02-03T18:16:23;7.10;99.90
5358;DHT22;2702;51.014;7.170;2023-02-03T18:18:55;7.10;99.90
5358;DHT22;2702;51.014;7.170;2023-02-03T18:21:22;7.10;99.90
5358;DHT22;2702;51.014;7.170;2023-02-03T18:23:49;7.10;99.90
5358;DHT22;2702;51.014;7.170;2023-02-03T18:26:17;7.10;99.90
5358;DHT22;2702;51.014;7.170;2023-02-03T18:28:44;7.10;99.90
5358;DHT22;2702;51.014;7.170;2023-02-03T18:31:14;7.10;99.90
5358;DHT22;2702;51.014;7.170;2023-02-03T18:33:43;7.10;99.90
5358;DHT22;2702;51.014;7.170;2023-02-03T18:36:10;7.00;99.90
5358;DHT22;2702;51.014;7.170;2023-02-03T18:38:39;7.00;99.90
5358;DHT22;2702;51.014;7.170;2023-02-03T18:41:15;7.00;99.90
5358;DHT22;2702;51.014;7.170;2023-02-03T18:43:42;7.10;99.90
5358;DHT22;2702;51.014;7.170;2023-02-03T18:46:32;7.10;99.90
5358;DHT22;2702;51.014;7.170;2023-02-03T18:48:58;7.10;99.90
5358;DHT22;2702;51.014;7.170;2023-02-03T18:51:25;7.00;99.90
5358;DHT22;2702;51.014;7.170;2023-02-03T18:53:56;7.00;99.90
5358;DHT22;2702;51.014;7.170;2023-02-03T18:56:25;7.00;99.90
5358;DHT22;2702;51.014;7.170;2023-02-03T18:58:51;7.00;99.90
5358;DHT22;2702;51.014;7.170;2023-02-03T19:01:24;7.00;99.90
5358;DHT22;2702;51.014;7.170;2023-02-03T19:03:51;7.00;99.90
5358;DHT22;2702;51.014;7.170;2023-02-03T19:06:17;7.00;99.90
5358;DHT22;2702;51.014;7.170;2023-02-03T19:08:43;6.90;99.90
5358;DHT22;2702;51.014;7.170;2023-02-03T19:11:10;6.90;99.90